Time;durP1;ratioP1;P1;durP2;ratioP2;P2;SDS_P1;SDS_P2;PMS_P1;PMS_P2;Temp;Humidity;BMP_temperature;BMP_pressure;BME280_temperature;BME280_humidity;BME280_pressure;Samples;Min_cycle;Max_cycle;Signal;HPM_P1;HPM_P2
2022/09/23 00:00:29;;;;;;;2.72;1.73;;;11.60;99.90;;;;;;5135225;27;20595;-52
2022/09/23 00:02:55;;;;;;;3.58;1.88;;;11.60;99.90;;;;;;5134939;27;20164;-52
2022/09/23 00:05:21;;;;;;;2.25;1.65;;;11.50;99.90;;;;;;5134692;27;20613;-51
2022/09/23 00:07:48;;;;;;;5.10;2.00;;;11.50;99.90;;;;;;5134720;27;20168;-52
2022/09/23 00:10:13;;;;;;;3.65;2.10;;;11.50;99.90;;;;;;5135370;27;20176;-51
2022/09/23 00:12:39;;;;;;;3.40;2.00;;;11.50;99.90;;;;;;5134646;27;20252;-52
2022/09/23 00:15:05;;;;;;;3.15;1.70;;;11.50;99.90;;;;;;5134870;27;21358;-51
2022/09/23 00:17:31;;;;;;;4.40;2.10;;;11.50;99.90;;;;;;5134576;27;20164;-53
2022/09/23 00:19:57;;;;;;;4.05;2.05;;;11.50;99.90;;;;;;5133760;27;20163;-52
2022/09/23 00:22:22;;;;;;;3.45;1.92;;;11.40;99.90;;;;;;5134482;27;20164;-51
2022/09/23 00:24:48;;;;;;;4.53;2.15;;;11.40;99.90;;;;;;5134661;27;20529;-51
2022/09/23 00:27:14;;;;;;;2.83;2.00;;;11.40;99.90;;;;;;5134826;27;20528;-53
2022/09/23 00:29:39;;;;;;;2.92;2.28;;;11.40;99.90;;;;;;5134349;27;20160;-51
2022/09/23 00:32:05;;;;;;;2.95;2.33;;;11.30;99.90;;;;;;5134287;27;20204;-52
2022/09/23 00:34:30;;;;;;;6.03;2.10;;;11.30;99.90;;;;;;5134388;27;20621;-52
2022/09/23 00:36:56;;;;;;;4.15;2.17;;;11.30;99.90;;;;;;5134194;27;20659;-52
2022/09/23 00:39:25;;;;;;;5.68;2.58;;;11.40;99.90;;;;;;5134222;27;20518;-54
2022/09/23 00:41:51;;;;;;;5.88;2.33;;;11.30;99.90;;;;;;5134427;27;20525;-51
2022/09/23 00:44:52;;;;;;;3.10;2.78;;;11.30;99.90;;;;;;5134116;27;20620;-50
2022/09/23 00:47:43;;;;;;;6.60;2.58;;;11.30;99.90;;;;;;5134089;27;20164;-52
2022/09/23 00:50:29;;;;;;;5.70;3.05;;;11.30;99.90;;;;;;5134242;27;20167;-52
2022/09/23 00:52:58;;;;;;;3.20;2.80;;;11.30;99.90;;;;;;5133990;27;20180;-53
2022/09/23 00:55:53;;;;;;;7.90;3.10;;;11.30;99.90;;;;;;5133664;27;20243;-51
2022/09/23 00:58:23;;;;;;;6.55;3.38;;;11.30;99.90;;;;;;5133710;27;20228;-52
2022/09/23 01:00:49;;;;;;;3.72;3.15;;;11.20;99.90;;;;;;5133735;27;20246;-53
2022/09/23 01:03:15;;;;;;;5.30;2.78;;;11.20;99.90;;;;;;5134068;27;20175;-54
2022/09/23 01:05:41;;;;;;;5.68;3.05;;;11.20;99.90;;;;;;5134255;27;20675;-54
2022/09/23 01:08:10;;;;;;;4.75;3.55;;;11.20;99.90;;;;;;5133889;27;20263;-55
2022/09/23 01:10:57;;;;;;;4.75;3.22;;;11.20;99.90;;;;;;5133420;27;20164;-54
2022/09/23 01:13:34;;;;;;;7.70;3.70;;;11.20;99.90;;;;;;5133540;27;20168;-54
2022/09/23 01:16:16;;;;;;;4.32;3.08;;;11.20;99.90;;;;;;5133463;27;20163;-54
2022/09/23 01:19:00;;;;;;;6.15;3.80;;;11.10;99.90;;;;;;5133788;27;20160;-54
2022/09/23 01:21:39;;;;;;;5.57;3.42;;;11.20;99.90;;;;;;5133361;27;20160;-54
2022/09/23 01:24:27;;;;;;;5.50;3.35;;;11.20;99.90;;;;;;5133388;27;20193;-54
2022/09/23 01:27:18;;;;;;;4.70;3.65;;;11.10;99.90;;;;;;5131968;27;20253;-54
2022/09/23 01:30:03;;;;;;;6.63;4.07;;;11.20;99.90;;;;;;5133763;27;20164;-55
2022/09/23 01:33:16;;;;;;;5.97;3.97;;;11.10;99.90;;;;;;5133052;27;20200;-55
2022/09/23 01:36:03;;;;;;;4.82;4.15;;;11.10;99.90;;;;;;5104435;27;20180;-55
2022/09/23 01:38:35;;;;;;;5.40;4.57;;;11.10;99.90;;;;;;5133167;27;20227;-52
2022/09/23 01:41:32;;;;;;;6.05;4.25;;;11.10;99.90;;;;;;5133120;27;20160;-52
2022/09/23 01:44:07;;;;;;;8.02;4.88;;;11.10;99.90;;;;;;5131668;27;20608;-55
2022/09/23 01:46:42;;;;;;;5.35;4.38;;;11.00;99.90;;;;;;5133138;27;20159;-54
2022/09/23 01:49:16;;;;;;;6.68;4.38;;;11.00;99.90;;;;;;5133142;27;20214;-54
2022/09/23 01:51:59;;;;;;;5.72;4.32;;;10.90;99.90;;;;;;5133263;27;20199;-51
2022/09/23 01:54:57;;;;;;;8.25;4.70;;;10.90;99.90;;;;;;5132736;27;20258;-54
2022/09/23 01:57:30;;;;;;;7.30;4.55;;;10.90;99.90;;;;;;5128292;27;20246;-53
2022/09/23 02:00:05;;;;;;;7.35;4.85;;;10.90;99.90;;;;;;5132803;27;20201;-51
2022/09/23 02:02:58;;;;;;;8.27;5.57;;;10.90;99.90;;;;;;5132668;27;20209;-52
2022/09/23 02:05:38;;;;;;;7.88;5.38;;;10.90;99.90;;;;;;5132722;27;20164;-52
2022/09/23 02:08:22;;;;;;;7.65;5.00;;;10.90;99.90;;;;;;5132653;27;20187;-51
2022/09/23 02:11:07;;;;;;;7.32;5.28;;;10.90;99.90;;;;;;5132604;27;20164;-52
2022/09/23 02:14:00;;;;;;;9.18;4.82;;;10.90;99.90;;;;;;5132964;27;20183;-51
2022/09/23 02:16:40;;;;;;;7.20;5.22;;;10.90;99.90;;;;;;5132560;27;20189;-51
2022/09/23 02:19:12;;;;;;;11.18;6.05;;;10.90;99.90;;;;;;5132533;27;20164;-51
2022/09/23 02:22:08;;;;;;;7.72;5.72;;;10.90;99.90;;;;;;5132527;27;20164;-52
2022/09/23 02:24:37;;;;;;;9.60;5.63;;;10.90;99.90;;;;;;5131329;27;20288;-51
2022/09/23 02:27:59;;;;;;;10.38;5.30;;;10.80;99.90;;;;;;5132767;27;20168;-52
2022/09/23 02:30:30;;;;;;;7.05;5.25;;;10.80;99.90;;;;;;5069139;28;20223;-51
2022/09/23 02:33:10;;;;;;;13.82;6.18;;;10.80;99.90;;;;;;5069201;28;20224;-52
2022/09/23 02:35:47;;;;;;;10.25;5.43;;;10.80;99.90;;;;;;5107192;27;20175;-53
2022/09/23 02:38:36;;;;;;;8.15;5.53;;;10.80;99.90;;;;;;5132704;27;20176;-51
2022/09/23 02:41:17;;;;;;;6.68;5.20;;;10.70;99.90;;;;;;5132564;27;20513;-53
2022/09/23 02:44:11;;;;;;;6.68;4.90;;;10.70;99.90;;;;;;5136705;27;20513;-52
2022/09/23 02:46:37;;;;;;;7.82;5.05;;;10.70;99.90;;;;;;5136505;27;20164;-53
2022/09/23 02:49:10;;;;;;;8.05;5.53;;;10.70;99.90;;;;;;5136608;27;20172;-52
2022/09/23 02:51:37;;;;;;;7.13;5.15;;;10.70;99.90;;;;;;5134978;27;20290;-53
2022/09/23 02:54:09;;;;;;;9.50;5.57;;;10.60;99.90;;;;;;5136104;27;20606;-52
2022/09/23 02:56:34;;;;;;;9.35;5.65;;;10.60;99.90;;;;;;5136160;27;20663;-51
2022/09/23 02:59:01;;;;;;;7.85;5.95;;;10.60;99.90;;;;;;5136177;27;20168;-53
2022/09/23 03:01:38;;;;;;;6.78;5.57;;;10.60;99.90;;;;;;5136184;27;20164;-54
2022/09/23 03:04:09;;;;;;;6.80;5.78;;;10.60;99.90;;;;;;5136139;27;20254;-55
2022/09/23 03:06:52;;;;;;;8.77;6.47;;;10.60;99.90;;;;;;5136207;27;20160;-54
2022/09/23 03:09:32;;;;;;;9.63;6.28;;;10.60;99.90;;;;;;5135733;27;20205;-53
2022/09/23 03:12:34;;;;;;;8.73;6.60;;;10.60;99.90;;;;;;5135907;27;20279;-55
2022/09/23 03:15:03;;;;;;;9.55;6.45;;;10.60;99.90;;;;;;5136029;27;20251;-55
2022/09/23 03:17:36;;;;;;;9.10;6.30;;;10.60;99.90;;;;;;5135783;27;20696;-52
2022/09/23 03:20:09;;;;;;;11.98;6.07;;;10.60;99.90;;;;;;5136095;27;20175;-53
2022/09/23 03:22:59;;;;;;;10.43;5.97;;;10.60;99.90;;;;;;5135690;27;20716;-54
2022/09/23 03:25:30;;;;;;;11.25;6.72;;;10.60;99.90;;;;;;5135634;27;20700;-55
2022/09/23 03:27:59;;;;;;;7.30;5.53;;;10.60;99.90;;;;;;5135710;27;20247;-55
2022/09/23 03:30:25;;;;;;;8.55;6.03;;;10.60;99.90;;;;;;5135909;27;20171;-56
2022/09/23 03:32:53;;;;;;;12.77;6.32;;;10.50;99.90;;;;;;5135590;27;20250;-55
2022/09/23 03:35:22;;;;;;;9.00;6.78;;;10.50;99.90;;;;;;5135511;27;20717;-53
2022/09/23 03:38:11;;;;;;;7.40;5.63;;;10.50;99.90;;;;;;5135541;27;20235;-52
2022/09/23 03:40:42;;;;;;;7.20;5.43;;;10.50;99.90;;;;;;5135400;27;20172;-53
2022/09/23 03:43:10;;;;;;;8.57;5.72;;;10.50;99.90;;;;;;5135281;27;20640;-55
2022/09/23 03:45:36;;;;;;;9.00;6.78;;;10.50;99.90;;;;;;5135242;27;20662;-53
2022/09/23 03:48:01;;;;;;;17.85;8.27;;;10.50;99.90;;;;;;5135266;27;20156;-55
2022/09/23 03:50:27;;;;;;;9.52;6.38;;;10.50;99.90;;;;;;5135272;27;20195;-52
2022/09/23 03:52:53;;;;;;;11.00;5.97;;;10.50;99.90;;;;;;5134532;27;20602;-55
2022/09/23 03:55:20;;;;;;;9.10;6.05;;;10.50;99.90;;;;;;5134295;27;20269;-54
2022/09/23 03:57:46;;;;;;;9.43;5.88;;;10.40;99.90;;;;;;5135359;27;20535;-55
2022/09/23 04:00:12;;;;;;;9.98;6.43;;;10.40;99.90;;;;;;5135481;27;20156;-55
2022/09/23 04:02:38;;;;;;;8.55;5.95;;;10.40;99.90;;;;;;5134943;27;20168;-55
2022/09/23 04:05:05;;;;;;;9.32;6.85;;;10.30;99.90;;;;;;5134893;27;20156;-55
2022/09/23 04:07:31;;;;;;;8.23;6.20;;;10.30;99.90;;;;;;5134841;27;20163;-54
2022/09/23 04:09:57;;;;;;;8.35;5.80;;;10.30;99.90;;;;;;5134913;27;20168;-55
2022/09/23 04:12:23;;;;;;;8.52;6.30;;;10.20;99.90;;;;;;5134933;27;20240;-55
2022/09/23 04:14:49;;;;;;;13.55;7.05;;;10.20;99.90;;;;;;5134844;27;20156;-56
2022/09/23 04:17:14;;;;;;;11.45;7.40;;;10.20;99.90;;;;;;5134780;27;20168;-54
2022/09/23 04:19:40;;;;;;;11.18;7.05;;;10.20;99.90;;;;;;5135039;27;20693;-55
2022/09/23 04:22:07;;;;;;;12.68;7.85;;;10.20;99.90;;;;;;5134650;27;20172;-55
2022/09/23 04:24:33;;;;;;;10.35;7.43;;;10.20;99.90;;;;;;5134557;27;20197;-54
2022/09/23 04:26:58;;;;;;;10.65;5.75;;;10.20;99.90;;;;;;5134514;27;20172;-54
2022/09/23 04:29:25;;;;;;;20.08;7.97;;;10.20;99.90;;;;;;5134518;27;20171;-56
2022/09/23 04:31:51;;;;;;;7.13;5.93;;;10.20;99.90;;;;;;5134368;27;20256;-55
2022/09/23 04:34:18;;;;;;;7.38;5.57;;;10.10;99.90;;;;;;5134304;27;20243;-55
2022/09/23 04:36:45;;;;;;;14.70;8.38;;;10.10;99.90;;;;;;5134543;27;20182;-51
2022/09/23 04:39:12;;;;;;;34.67;14.90;;;10.10;99.90;;;;;;5134613;27;20572;-55
2022/09/23 04:41:37;;;;;;;15.13;8.30;;;10.10;99.90;;;;;;5134052;27;20209;-55
2022/09/23 04:44:03;;;;;;;15.57;6.80;;;10.00;99.90;;;;;;5134197;27;20180;-56
2022/09/23 04:46:29;;;;;;;8.77;6.88;;;10.00;99.90;;;;;;5134015;27;20160;-55
2022/09/23 04:48:56;;;;;;;12.27;6.88;;;10.00;99.90;;;;;;5133976;27;20164;-54
2022/09/23 04:51:23;;;;;;;20.70;9.50;;;10.00;99.90;;;;;;5133979;27;20535;-55
2022/09/23 04:53:58;;;;;;;12.60;7.00;;;10.00;99.90;;;;;;5133530;27;20698;-56
2022/09/23 04:56:27;;;;;;;15.10;8.75;;;10.00;99.90;;;;;;5133938;27;20170;-54
2022/09/23 04:58:53;;;;;;;30.00;11.88;;;9.90;99.90;;;;;;5133474;27;20171;-55
2022/09/23 05:01:25;;;;;;;13.88;6.50;;;10.00;99.90;;;;;;5133730;27;20221;-54
2022/09/23 05:03:56;;;;;;;15.55;8.45;;;10.00;99.90;;;;;;5134040;27;20522;-54
2022/09/23 05:06:23;;;;;;;12.35;7.70;;;9.90;99.90;;;;;;5132211;27;20228;-54
2022/09/23 05:08:50;;;;;;;15.05;7.13;;;9.90;99.90;;;;;;5133699;27;20168;-55
2022/09/23 05:11:17;;;;;;;8.68;6.63;;;9.90;99.90;;;;;;5132165;27;20191;-53
2022/09/23 05:13:45;;;;;;;13.82;7.80;;;9.90;99.90;;;;;;5134251;27;20220;-54
2022/09/23 05:16:11;;;;;;;12.23;7.07;;;9.90;99.90;;;;;;5133898;27;20163;-55
2022/09/23 05:18:41;;;;;;;10.13;7.00;;;9.90;99.90;;;;;;5133463;27;20269;-54
2022/09/23 05:21:11;;;;;;;11.48;7.05;;;9.90;99.90;;;;;;5133441;27;20171;-55
2022/09/23 05:23:38;;;;;;;11.05;7.00;;;9.80;99.90;;;;;;5133363;27;20210;-55
2022/09/23 05:26:09;;;;;;;9.95;7.53;;;9.80;99.90;;;;;;5133518;27;20601;-55
2022/09/23 05:28:38;;;;;;;14.23;8.80;;;9.90;99.90;;;;;;5133137;27;20163;-54
2022/09/23 05:31:05;;;;;;;22.08;11.30;;;9.90;99.90;;;;;;5133045;27;20551;-54
2022/09/23 05:33:33;;;;;;;12.45;7.25;;;9.90;99.90;;;;;;5133206;27;20226;-55
2022/09/23 05:35:59;;;;;;;15.75;9.35;;;9.90;99.90;;;;;;5132934;27;20156;-54
2022/09/23 05:38:24;;;;;;;12.23;7.90;;;9.90;99.90;;;;;;5133031;27;20571;-54
2022/09/23 05:41:05;;;;;;;17.50;9.50;;;9.80;99.90;;;;;;5133033;27;20168;-55
2022/09/23 05:43:32;;;;;;;15.35;8.20;;;9.90;99.90;;;;;;5132979;27;20176;-54
2022/09/23 05:46:05;;;;;;;19.30;9.82;;;9.90;99.90;;;;;;5132772;27;20168;-52
2022/09/23 05:48:32;;;;;;;18.02;9.90;;;9.90;99.90;;;;;;5132777;27;20621;-51
2022/09/23 05:50:58;;;;;;;20.13;8.40;;;9.90;99.90;;;;;;5132749;27;20181;-52
2022/09/23 05:53:25;;;;;;;18.17;8.40;;;9.90;99.90;;;;;;5132467;27;20164;-54
2022/09/23 05:55:50;;;;;;;18.38;9.88;;;9.90;99.90;;;;;;5131516;27;20175;-51
2022/09/23 05:58:16;;;;;;;10.15;6.22;;;9.90;99.90;;;;;;5132679;27;20164;-53
2022/09/23 06:00:43;;;;;;;11.20;7.05;;;10.00;99.90;;;;;;5133176;27;20157;-52
2022/09/23 06:03:12;;;;;;;15.75;6.18;;;10.10;99.90;;;;;;5133194;27;20633;-53
2022/09/23 06:05:38;;;;;;;14.35;8.10;;;10.10;99.90;;;;;;5132930;27;20236;-51
2022/09/23 06:08:04;;;;;;;14.07;7.30;;;10.10;99.90;;;;;;5132708;27;20168;-53
2022/09/23 06:10:34;;;;;;;18.70;8.80;;;10.20;99.90;;;;;;5132641;27;20195;-54
2022/09/23 06:13:00;;;;;;;10.50;7.07;;;10.20;99.90;;;;;;5131238;27;20575;-52
2022/09/23 06:15:26;;;;;;;11.65;6.43;;;10.20;99.90;;;;;;5132643;28;20164;-51
2022/09/23 06:17:51;;;;;;;12.60;8.25;;;10.30;99.90;;;;;;5131916;27;20167;-53
2022/09/23 06:20:17;;;;;;;18.98;7.57;;;10.40;99.90;;;;;;5132592;28;20581;-54
2022/09/23 06:22:42;;;;;;;23.13;9.63;;;10.40;99.90;;;;;;5133105;28;20164;-53
2022/09/23 06:25:08;;;;;;;11.07;6.35;;;10.50;99.90;;;;;;5132975;28;20228;-52
2022/09/23 06:27:34;;;;;;;15.48;6.35;;;10.50;99.90;;;;;;5132483;28;20168;-51
2022/09/23 06:29:59;;;;;;;11.43;7.65;;;10.60;99.90;;;;;;5132534;28;20506;-53
2022/09/23 06:32:25;;;;;;;9.57;5.50;;;10.60;99.90;;;;;;5132373;28;20207;-52
2022/09/23 06:34:50;;;;;;;15.52;7.80;;;10.70;99.90;;;;;;5132486;28;20166;-52
2022/09/23 06:37:16;;;;;;;11.93;6.80;;;10.80;99.90;;;;;;5132298;28;20176;-52
2022/09/23 06:39:41;;;;;;;10.80;7.13;;;10.90;99.90;;;;;;5132770;28;20209;-51
2022/09/23 06:42:07;;;;;;;8.05;5.30;;;11.00;99.90;;;;;;5132223;28;20210;-52
2022/09/23 06:44:33;;;;;;;10.05;6.28;;;11.10;99.90;;;;;;5132340;28;20326;-54
2022/09/23 06:46:58;;;;;;;14.65;7.63;;;11.20;99.90;;;;;;5132488;28;20179;-51
2022/09/23 06:49:25;;;;;;;14.57;6.53;;;11.40;99.90;;;;;;5132323;28;20686;-52
2022/09/23 06:51:50;;;;;;;10.02;5.70;;;11.40;99.90;;;;;;5132417;28;20208;-52
2022/09/23 06:54:16;;;;;;;17.63;8.10;;;11.50;99.90;;;;;;5131941;28;20573;-52
2022/09/23 06:56:43;;;;;;;19.65;9.68;;;11.60;99.90;;;;;;5132601;28;20531;-52
2022/09/23 06:59:11;;;;;;;10.25;5.75;;;11.80;99.90;;;;;;5132505;27;20211;-52
2022/09/23 07:01:37;;;;;;;16.92;8.63;;;11.90;99.90;;;;;;5132314;28;20308;-54
2022/09/23 07:04:03;;;;;;;14.38;7.00;;;12.00;99.90;;;;;;5132320;28;20197;-51
2022/09/23 07:06:28;;;;;;;15.90;7.28;;;12.30;99.90;;;;;;5130716;28;20666;-54
2022/09/23 07:08:54;;;;;;;21.92;10.93;;;12.50;99.90;;;;;;5132142;28;20172;-51
2022/09/23 07:11:21;;;;;;;10.50;6.22;;;12.60;99.90;;;;;;5132031;28;20246;-51
2022/09/23 07:13:47;;;;;;;11.15;5.85;;;12.70;99.90;;;;;;5132251;28;20172;-51
2022/09/23 07:16:12;;;;;;;16.77;8.25;;;12.80;99.90;;;;;;5132477;28;20156;-51
2022/09/23 07:18:39;;;;;;;12.15;6.30;;;12.90;99.90;;;;;;5132298;28;20175;-51
2022/09/23 07:21:16;;;;;;;15.52;8.10;;;13.00;99.90;;;;;;5132098;28;20175;-51
2022/09/23 07:23:45;;;;;;;13.30;5.55;;;13.00;99.90;;;;;;5132305;28;20168;-53
2022/09/23 07:26:12;;;;;;;14.45;5.70;;;13.20;99.90;;;;;;5132141;28;20199;-54
2022/09/23 07:28:38;;;;;;;15.32;7.57;;;13.00;99.90;;;;;;5132978;27;20167;-54
2022/09/23 07:31:10;;;;;;;20.13;9.10;;;13.00;99.90;;;;;;5135569;27;20617;-54
2022/09/23 07:33:36;;;;;;;26.30;10.70;;;13.10;99.90;;;;;;5135587;27;20220;-53
2022/09/23 07:36:07;;;;;;;21.45;8.77;;;13.10;99.90;;;;;;5135457;27;20494;-53
2022/09/23 07:38:33;;;;;;;19.48;9.48;;;13.10;99.90;;;;;;5135393;27;20198;-54
2022/09/23 07:41:01;;;;;;;16.52;8.05;;;13.20;99.90;;;;;;5135108;27;20213;-54
2022/09/23 07:43:31;;;;;;;13.65;7.40;;;13.30;99.90;;;;;;5135527;27;20167;-54
2022/09/23 07:45:57;;;;;;;9.95;6.30;;;13.40;99.90;;;;;;5135563;27;20575;-54
2022/09/23 07:48:23;;;;;;;13.68;6.15;;;13.50;99.90;;;;;;5135303;27;20219;-54
2022/09/23 07:50:49;;;;;;;21.08;9.50;;;13.50;99.90;;;;;;5133729;27;20261;-54
2022/09/23 07:53:15;;;;;;;9.48;5.45;;;13.50;99.90;;;;;;5135037;27;20526;-54
2022/09/23 07:55:40;;;;;;;14.63;7.20;;;13.60;99.90;;;;;;5135288;27;20218;-54
2022/09/23 07:58:06;;;;;;;20.00;9.35;;;13.60;99.90;;;;;;5135135;27;20656;-53
2022/09/23 08:00:32;;;;;;;16.80;7.85;;;13.60;99.90;;;;;;5133715;27;20171;-54
2022/09/23 08:02:57;;;;;;;8.10;4.90;;;13.70;99.90;;;;;;5135216;27;20172;-54
2022/09/23 08:05:24;;;;;;;11.57;5.13;;;13.70;99.90;;;;;;5134962;27;20652;-55
2022/09/23 08:07:50;;;;;;;9.32;5.85;;;13.60;99.90;;;;;;5134894;27;20168;-53
2022/09/23 08:10:19;;;;;;;9.93;4.75;;;13.70;99.90;;;;;;5135104;27;20171;-53
2022/09/23 08:12:46;;;;;;;7.85;5.45;;;13.70;99.90;;;;;;5134955;27;20290;-54
2022/09/23 08:15:12;;;;;;;8.65;4.68;;;13.80;99.90;;;;;;5135150;27;20172;-55
2022/09/23 08:17:37;;;;;;;6.95;4.38;;;10.20;99.90;;;;;;5135079;27;20163;-53
2022/09/23 08:20:03;;;;;;;13.23;7.53;;;14.00;99.90;;;;;;5134748;27;20644;-54
2022/09/23 08:22:29;;;;;;;11.95;6.35;;;14.10;99.90;;;;;;5134617;27;20527;-53
2022/09/23 08:24:54;;;;;;;10.80;5.43;;;14.20;99.90;;;;;;5134616;27;20175;-55
2022/09/23 08:27:20;;;;;;;8.80;4.38;;;14.30;99.90;;;;;;5134604;27;20164;-53
2022/09/23 08:29:46;;;;;;;7.45;4.75;;;14.40;99.90;;;;;;5134462;27;20216;-53
2022/09/23 08:32:12;;;;;;;9.93;4.32;;;14.50;99.90;;;;;;5134835;27;20290;-54
2022/09/23 08:34:38;;;;;;;8.00;4.20;;;14.50;99.90;;;;;;5134894;27;20246;-54
2022/09/23 08:37:07;;;;;;;8.95;3.83;;;14.70;99.90;;;;;;5134533;27;20639;-54
2022/09/23 08:39:33;;;;;;;5.63;4.00;;;14.70;99.90;;;;;;5133588;27;20312;-54
2022/09/23 08:42:07;;;;;;;7.43;4.63;;;14.80;99.90;;;;;;5134216;27;20668;-54
2022/09/23 08:44:49;;;;;;;5.35;4.22;;;15.00;99.90;;;;;;5134169;27;20164;-55
2022/09/23 08:47:26;;;;;;;7.85;4.72;;;16.80;99.90;;;;;;5134089;27;20174;-54
2022/09/23 08:50:10;;;;;;;7.43;3.97;;;15.20;99.90;;;;;;5134091;27;20166;-54
2022/09/23 08:52:53;;;;;;;6.65;4.28;;;15.20;99.90;;;;;;5133857;27;20256;-54
2022/09/23 08:55:28;;;;;;;10.73;5.10;;;15.20;99.90;;;;;;5133836;27;20223;-55
2022/09/23 08:58:14;;;;;;;11.93;6.20;;;15.30;99.90;;;;;;5133884;27;20180;-53
2022/09/23 09:00:41;;;;;;;7.03;5.20;;;15.40;99.90;;;;;;5134497;27;20210;-53
2022/09/23 09:03:21;;;;;;;12.30;7.18;;;15.30;99.90;;;;;;5134441;27;20219;-54
2022/09/23 09:05:47;;;;;;;7.93;3.50;;;15.30;99.90;;;;;;5134183;27;20186;-51
2022/09/23 09:08:13;;;;;;;5.95;3.42;;;15.20;99.90;;;;;;5133908;27;20176;-51
2022/09/23 09:10:46;;;;;;;5.95;4.72;;;15.30;99.90;;;;;;5134088;27;20172;-52
2022/09/23 09:13:32;;;;;;;8.40;4.35;;;15.30;99.90;;;;;;5133933;27;20196;-51
2022/09/23 09:16:21;;;;;;;14.38;7.32;;;15.40;99.90;;;;;;5133632;27;20621;-51
2022/09/23 09:18:54;;;;;;;8.57;6.38;;;15.50;99.90;;;;;;5133560;27;20191;-51
2022/09/23 09:21:26;;;;;;;8.57;4.80;;;15.70;99.90;;;;;;5133222;27;20168;-51
2022/09/23 09:23:55;;;;;;;17.70;10.30;;;15.80;99.90;;;;;;5133416;27;20225;-51
2022/09/23 09:26:24;;;;;;;22.38;13.35;;;15.80;99.90;;;;;;5133265;27;20168;-51
2022/09/23 09:29:32;;;;;;;10.27;6.10;;;15.80;99.90;;;;;;5142699;27;20219;-52
2022/09/23 09:31:58;;;;;;;18.67;10.13;;;16.10;99.90;;;;;;5142754;27;20279;-53
2022/09/23 09:34:34;;;;;;;14.73;9.60;;;16.40;99.90;;;;;;5133020;27;20168;-54
2022/09/23 09:37:22;;;;;;;8.82;3.58;;;16.60;99.90;;;;;;5135469;27;20316;-54
2022/09/23 09:39:47;;;;;;;8.82;4.20;;;16.60;99.90;;;;;;5133547;27;20241;-55
2022/09/23 09:42:28;;;;;;;11.45;6.97;;;16.60;99.90;;;;;;5132876;27;20176;-54
2022/09/23 09:45:01;;;;;;;7.32;4.70;;;16.70;99.90;;;;;;5132874;27;20175;-53
2022/09/23 09:47:50;;;;;;;10.00;5.10;;;16.60;99.90;;;;;;5132603;27;20205;-51
2022/09/23 09:50:37;;;;;;;7.50;5.32;;;16.80;99.90;;;;;;5132819;27;20164;-52
2022/09/23 09:53:34;;;;;;;30.90;19.77;;;16.80;99.90;;;;;;5132089;27;20211;-51
2022/09/23 09:56:09;;;;;;;14.20;6.05;;;16.80;99.90;;;;;;5131833;27;20188;-51
2022/09/23 09:58:48;;;;;;;11.50;6.50;;;16.80;99.90;;;;;;5133096;27;20246;-51
2022/09/23 10:01:21;;;;;;;9.57;5.68;;;17.00;99.90;;;;;;5133007;27;20178;-52
2022/09/23 10:03:49;;;;;;;7.57;5.38;;;17.10;99.90;;;;;;5132686;27;20160;-51
2022/09/23 10:06:16;;;;;;;7.78;5.10;;;17.30;99.90;;;;;;5132688;27;20163;-54
2022/09/23 10:08:48;;;;;;;6.22;3.85;;;17.30;99.90;;;;;;5131514;27;20167;-52
2022/09/23 10:11:17;;;;;;;12.65;7.13;;;17.40;99.90;;;;;;5131405;27;20183;-51
2022/09/23 10:14:01;;;;;;;14.57;10.02;;;17.60;99.90;;;;;;5132672;27;20300;-50
2022/09/23 10:16:30;;;;;;;12.75;5.55;;;17.40;99.90;;;;;;5132549;27;20167;-51
2022/09/23 10:18:58;;;;;;;6.18;4.50;;;17.60;99.90;;;;;;5132813;27;20174;-51
2022/09/23 10:21:24;;;;;;;6.60;3.63;;;17.70;99.90;;;;;;5132616;27;20167;-51
2022/09/23 10:23:56;;;;;;;9.90;6.40;;;17.60;99.90;;;;;;5131164;28;20604;-51
2022/09/23 10:26:31;;;;;;;9.35;4.90;;;17.80;99.90;;;;;;5132438;27;20164;-51
2022/09/23 10:28:59;;;;;;;11.52;8.52;;;17.70;99.90;;;;;;5132427;27;20163;-49
2022/09/23 10:31:31;;;;;;;7.60;5.22;;;17.90;99.90;;;;;;5132421;27;20191;-50
2022/09/23 10:34:25;;;;;;;6.90;3.47;;;18.00;99.90;;;;;;5132449;27;20513;-50
2022/09/23 10:37:31;;;;;;;5.60;3.83;;;17.90;99.90;;;;;;5130654;28;20175;-52
2022/09/23 10:48:50;;;;;;;6.22;3.22;;;18.40;99.90;;;;;;5132627;28;20202;-50
2022/09/23 10:51:39;;;;;;;9.38;3.55;;;18.30;99.90;;;;;;5132229;27;20209;-53
2022/09/23 10:54:34;;;;;;;20.40;13.38;;;18.40;99.90;;;;;;5132079;27;20226;-51
2022/09/23 10:57:36;;;;;;;4.25;3.20;;;18.30;99.90;;;;;;5132334;27;20192;-51
2022/09/23 11:00:08;;;;;;;5.93;3.03;;;18.40;99.90;;;;;;5131205;28;20248;-51
2022/09/23 11:02:55;;;;;;;6.28;2.80;;;18.40;99.90;;;;;;5131574;27;20533;-50
2022/09/23 11:06:03;;;;;;;2.75;2.55;;;18.40;99.90;;;;;;5136501;27;20168;-50
2022/09/23 11:08:28;;;;;;;6.13;2.90;;;18.20;99.90;;;;;;5127648;27;20260;-50
2022/09/23 11:11:15;;;;;;;4.40;2.50;;;18.00;99.90;;;;;;5136039;27;20209;-51
2022/09/23 11:13:48;;;;;;;3.60;2.60;;;18.10;99.90;;;;;;5136191;27;20176;-50
2022/09/23 11:16:41;;;;;;;5.82;2.53;;;18.20;99.90;;;;;;5135869;27;20163;-52
2022/09/23 11:19:16;;;;;;;6.53;2.40;;;18.00;99.90;;;;;;5136321;27;20645;-50
2022/09/23 11:22:20;;;;;;;4.43;3.00;;;14.40;99.90;;;;;;5136127;27;20167;-50
2022/09/23 11:25:22;;;;;;;5.22;2.25;;;17.90;99.90;;;;;;5103891;27;20176;-51
2022/09/23 11:28:16;;;;;;;5.38;3.20;;;18.00;99.90;;;;;;5135760;27;20191;-51
2022/09/23 11:31:00;;;;;;;4.72;2.05;;;18.10;99.90;;;;;;5135909;27;20173;-50
2022/09/23 11:33:53;;;;;;;3.75;2.10;;;18.10;99.90;;;;;;5135604;27;20183;-51
2022/09/23 11:36:49;;;;;;;8.07;2.35;;;18.30;99.90;;;;;;5135423;27;20164;-50
2022/09/23 11:39:39;;;;;;;4.15;2.10;;;18.20;99.90;;;;;;5135642;27;20167;-50
2022/09/23 11:42:12;;;;;;;3.15;1.98;;;18.10;99.90;;;;;;5135419;27;20201;-53
2022/09/23 11:44:48;;;;;;;8.70;2.22;;;18.20;99.90;;;;;;5135716;27;20164;-53
2022/09/23 11:47:27;;;;;;;3.83;1.77;;;18.40;99.90;;;;;;5135240;27;20243;-53
2022/09/23 11:50:13;;;;;;;3.08;2.08;;;18.50;99.90;;;;;;5135575;27;20240;-53
2022/09/23 11:52:52;;;;;;;6.63;1.92;;;18.40;99.90;;;;;;5135438;27;20199;-54
2022/09/23 11:55:24;;;;;;;9.30;2.08;;;18.50;99.90;;;;;;5134959;27;20719;-53
2022/09/23 11:57:54;;;;;;;2.22;1.90;;;18.60;99.90;;;;;;5135111;27;20215;-53
2022/09/23 12:00:23;;;;;;;4.10;1.88;;;18.80;99.90;;;;;;5135384;27;20214;-54
2022/09/23 12:03:01;;;;;;;4.00;1.92;;;18.80;99.90;;;;;;5135064;27;20172;-54
2022/09/23 12:05:40;;;;;;;2.90;2.28;;;18.80;99.90;;;;;;5134867;27;20160;-52
2022/09/23 12:08:28;;;;;;;2.67;2.17;;;19.00;99.90;;;;;;5134866;27;20159;-54
2022/09/23 12:11:08;;;;;;;6.28;2.50;;;18.90;99.90;;;;;;5135031;27;20176;-53
2022/09/23 12:13:39;;;;;;;7.90;2.15;;;19.10;99.90;;;;;;5134743;27;20231;-54
2022/09/23 12:16:38;;;;;;;3.58;2.08;;;19.20;99.90;;;;;;5133834;27;20591;-53
2022/09/23 12:19:17;;;;;;;5.57;2.00;;;19.30;99.90;;;;;;5134648;27;20172;-53
2022/09/23 12:22:01;;;;;;;3.28;2.00;;;19.50;99.90;;;;;;5134925;27;20182;-54
2022/09/23 12:24:50;;;;;;;9.48;1.98;;;19.60;99.90;;;;;;5134511;27;20168;-53
2022/09/23 12:27:44;;;;;;;30.50;4.40;;;19.60;99.90;;;;;;5134794;27;20175;-53
2022/09/23 12:30:18;;;;;;;7.95;2.67;;;19.60;99.90;;;;;;5135207;27;20175;-53
2022/09/23 12:32:44;;;;;;;4.63;2.20;;;19.50;99.90;;;;;;5134575;27;20210;-53
2022/09/23 12:35:34;;;;;;;5.07;2.30;;;19.40;99.90;;;;;;5134456;27;20655;-54
2022/09/23 12:38:00;;;;;;;5.30;2.17;;;19.20;99.90;;;;;;5134214;27;20684;-54
2022/09/23 12:40:42;;;;;;;2.72;2.35;;;19.00;99.90;;;;;;5134347;27;20197;-53
2022/09/23 12:43:28;;;;;;;3.40;2.40;;;19.20;99.90;;;;;;5134542;27;20711;-53
2022/09/23 12:46:02;;;;;;;4.22;2.08;;;19.10;99.90;;;;;;5134389;27;20176;-53
2022/09/23 12:48:45;;;;;;;62.65;7.95;;;19.00;99.90;;;;;;5132985;27;20186;-53
2022/09/23 12:51:15;;;;;;;5.80;2.72;;;19.10;99.90;;;;;;5134013;27;20202;-52
2022/09/23 12:53:50;;;;;;;4.55;2.58;;;19.00;99.90;;;;;;5133984;27;20222;-50
2022/09/23 12:56:17;;;;;;;5.28;2.72;;;19.00;99.90;;;;;;5134092;27;20155;-53
2022/09/23 12:58:43;;;;;;;8.95;3.47;;;19.10;99.90;;;;;;5133757;27;20659;-53
2022/09/23 13:01:15;;;;;;;3.38;2.50;;;19.00;99.90;;;;;;5134029;27;20167;-53
2022/09/23 13:07:03;;;;;;;6.05;2.85;;;19.00;99.90;;;;;;5133766;27;20175;-53
2022/09/23 13:09:31;;;;;;;5.20;2.67;;;18.90;99.90;;;;;;5133722;27;20164;-53
2022/09/23 13:12:00;;;;;;;6.13;2.85;;;18.80;99.90;;;;;;5133409;27;20220;-54
2022/09/23 13:14:28;;;;;;;11.75;6.38;;;18.90;99.90;;;;;;5133541;27;20544;-54
2022/09/23 13:16:57;;;;;;;3.47;2.65;;;19.00;99.90;;;;;;5133572;27;20168;-53
2022/09/23 13:19:25;;;;;;;4.40;2.38;;;18.90;99.90;;;;;;5132498;27;20176;-53
2022/09/23 13:22:02;;;;;;;5.10;2.78;;;18.90;99.90;;;;;;5133319;27;20164;-54
2022/09/23 13:24:35;;;;;;;2.67;2.42;;;18.80;99.90;;;;;;5133182;27;20174;-53
2022/09/23 13:27:01;;;;;;;6.22;2.75;;;18.70;99.90;;;;;;5133431;27;20255;-53